Latest Weather Observations for Yanakie

IDV60801

Issued at 9:31 pm EDT Monday 26 January 2015 (issued every 30 minutes, with the page automatically refreshed every 10 minutes)

About weather observations | Map of weather stations | Latest weather observations for VIC | Other Formats
Station Details ID: 085301 Name: YANAKIE Lat: -38.81 Lon: 146.19 Height: 13.3 m
Data from the previous 72 hours. | See also: Recent months at Yanakie
Date/Time
EDT
Temp
°C
App
Temp
°C
Dew
Point
Rel
Hum
%
Delta-T
°C
Wind Press
QNH
hPa
Press
MSL
hPa
Rain
since 9 am
mm
Dir
 
Spd
km/h
Gust
km/h
Spd
kts
Gust
kts
26/09:30pm 11.5 9.5 6.2 70 2.5 S 6 6 3 3 1017.9 1017.8 0.0
26/09:00pm 12.3 10.1 6.4 67 2.8 SSW 7 13 4 7 1017.7 1017.6 0.0
26/08:30pm 13.8 10.5 6.4 61 3.5 SSW 13 17 7 9 1017.5 1017.4 0.0
26/08:00pm 15.3 11.8 7.1 58 4.0 SSW 15 22 8 12 1017.3 1017.2 0.0
26/07:30pm 16.3 12.3 6.7 53 4.7 SSW 17 24 9 13 1017.0 1016.9 0.0
26/07:00pm 17.2 12.9 7.0 51 5.1 SSW 19 24 10 13 1016.7 1016.6 0.0
26/06:30pm 17.6 12.7 6.8 49 5.4 SSW 22 32 12 17 1016.5 1016.4 0.0
26/06:00pm 17.8 12.3 7.5 51 5.2 SSW 26 35 14 19 1016.3 1016.2 0.0
26/05:30pm 18.5 13.1 8.2 51 5.3 SSW 26 35 14 19 1016.5 1016.4 0.0
26/05:00pm 18.9 13.4 7.4 47 5.8 SSW 26 33 14 18 1016.8 1016.7 0.0
26/04:30pm 19.1 14.1 8.1 49 5.7 SSW 24 32 13 17 1016.9 1016.8 0.0
26/04:00pm 19.8 14.8 8.2 47 6.0 SSW 24 35 13 19 1016.8 1016.7 0.0
26/03:30pm 19.3 14.0 8.3 49 5.7 SSW 26 37 14 20 1016.6 1016.5 0.0
26/03:00pm 19.7 14.8 8.4 48 5.9 SSW 24 35 13 19 1016.7 1016.6 0.0
26/02:30pm 20.0 15.7 9.3 50 5.7 SW 22 32 12 17 1016.7 1016.6 0.0
26/02:00pm 19.8 15.0 8.8 49 5.8 SSW 24 33 13 18 1016.7 1016.6 0.0
26/01:30pm 20.3 16.3 9.2 49 5.9 SW 20 33 11 18 1016.9 1016.8 0.0
26/01:00pm 19.8 16.0 9.7 52 5.4 SSW 20 28 11 15 1017.0 1016.9 0.0
26/12:30pm 20.2 16.5 9.5 50 5.7 SW 19 26 10 14 1016.9 1016.8 0.0
26/12:00pm 19.8 16.1 10.2 54 5.2 SW 20 28 11 15 1016.9 1016.8 0.0
26/11:30am 19.5 15.9 10.5 56 4.9 SSW 20 33 11 18 1016.7 1016.6 0.0
26/11:00am 18.7 14.7 8.1 50 5.4 SW 19 28 10 15 1016.7 1016.6 0.0
26/10:30am 17.4 13.6 7.7 53 4.9 SW 17 26 9 14 1016.6 1016.5 0.0
26/10:00am 17.6 14.0 8.5 55 4.7 SW 17 26 9 14 1016.5 1016.4 0.0
26/09:30am 17.4 13.4 10.3 63 3.8 SW 22 30 12 16 1016.2 1016.1 0.0
26/09:00am 15.5 13.3 9.4 67 3.1 WSW 11 20 6 11 1016.0 1015.9 0.0
26/08:30am 15.0 12.6 8.7 66 3.2 W 11 15 6 8 1015.9 1015.8 0.0
26/08:00am 13.8 11.8 8.8 72 2.5 WNW 9 13 5 7 1015.6 1015.5 0.0
26/07:30am 12.4 10.4 8.7 78 1.8 NW 9 13 5 7 1015.2 1015.1 0.0
26/07:00am 10.1 8.3 7.0 81 1.5 NW 6 9 3 5 1014.9 1014.8 0.0
26/06:30am 9.7 7.2 6.4 80 1.5 WNW 9 11 5 6 1014.5 1014.4 0.0
26/06:00am 10.2 8.2 7.1 81 1.5 WNW 7 11 4 6 1014.1 1014.0 0.0
26/05:30am 10.3 8.0 7.4 82 1.4 WNW 9 11 5 6 1013.7 1013.6 0.0
26/05:00am 10.0 7.2 7.1 82 1.4 WNW 11 13 6 7 1013.4 1013.3 0.0
26/04:30am 10.0 7.6 6.9 81 1.5 WNW 9 15 5 8 1013.1 1013.0 0.0
26/04:00am 9.4 6.6 6.8 84 1.2 WNW 11 13 6 7 1013.0 1012.9 0.0
26/03:30am 9.0 6.1 6.3 83 1.2 NW 11 13 6 7 1013.0 1012.9 0.0
26/03:00am 10.6 8.6 7.3 80 1.6 W 7 11 4 6 1013.0 1012.9 0.0
26/02:30am 10.8 8.2 7.7 81 1.5 W 11 15 6 8 1012.9 1012.8 0.0
26/02:00am 11.0 8.8 7.7 80 1.6 WNW 9 13 5 7 1012.6 1012.5 0.0
26/01:30am 10.9 8.7 7.8 81 1.5 WNW 9 13 5 7 1012.5 1012.4 0.0
26/01:00am 10.1 7.6 6.4 78 1.7 WNW 9 11 5 6 1012.6 1012.5 0.0
26/12:30am 10.3 7.4 6.3 76 1.9 NW 11 13 6 7 1012.6 1012.5 0.0
26/12:00am 12.3 9.3 7.6 73 2.3 W 13 19 7 10 1012.5 1012.4 0.0
 
Date/Time
EDT
Temp
°C
App
Temp
°C
Dew
Point
Rel
Hum
%
Delta-T
°C
Wind Press
QNH
hPa
Press
MSL
hPa
Rain
since 9 am
mm
Dir
 
Spd
km/h
Gust
km/h
Spd
kts
Gust
kts
25/11:30pm 12.9 9.1 7.6 70 2.6 W 17 20 9 11 1012.4 1012.3 0.0
25/11:00pm 12.9 9.8 7.1 68 2.8 WNW 13 20 7 11 1012.4 1012.3 0.0
25/10:30pm 13.2 9.3 7.2 67 2.9 WNW 17 26 9 14 1012.3 1012.2 0.0
25/10:00pm 13.7 9.5 8.1 69 2.8 W 20 32 11 17 1012.0 1011.9 0.0
25/09:30pm 14.0 7.6 7.1 63 3.4 W 30 39 16 21 1011.7 1011.6 0.0
25/09:00pm 14.4 7.5 7.2 62 3.5 W 33 44 18 24 1011.4 1011.3 0.0
25/08:30pm 14.4 8.0 7.0 61 3.6 W 30 39 16 21 1010.9 1010.8 0.0
25/08:00pm 15.4 7.7 6.9 57 4.2 W 37 48 20 26 1010.6 1010.5 0.0
25/07:30pm 16.0 9.0 7.0 55 4.4 WSW 33 46 18 25 1010.4 1010.3 0.0
25/07:00pm 16.3 8.6 7.0 54 4.6 W 37 50 20 27 1010.0 1009.9 0.0
25/06:30pm 16.6 9.1 7.8 56 4.4 WSW 37 50 20 27 1009.6 1009.5 0.0
25/06:00pm 17.1 8.9 8.0 55 4.6 W 41 56 22 30 1009.2 1009.1 0.0
25/05:30pm 16.3 8.0 7.8 57 4.3 WSW 41 52 22 28 1008.9 1008.8 0.0
25/05:01pm 17.4 8.7 7.5 52 5.0 WSW 43 61 23 33 1008.6 1008.5 0.0
25/05:00pm 17.5 9.3 8.1 54 4.8 WSW 41 57 22 31 1008.6 1008.5 0.0
25/04:45pm 16.7 7.7 8.7 59 4.1 W 46 67 25 36 1008.3 1008.2 0.0
25/04:30pm 17.1 8.0 8.5 57 4.4 WSW 46 59 25 32 1008.4 1008.3 0.0
25/04:22pm 18.3 9.6 8.6 53 5.0 W 44 63 24 34 1008.3 1008.2 0.0
25/04:00pm 18.5 9.0 8.2 51 5.3 W 48 61 26 33 1008.1 1008.0 0.0
25/03:30pm 18.5 8.5 7.9 50 5.4 WSW 50 69 27 37 1007.7 1007.6 0.0
25/03:24pm 17.4 7.7 7.7 53 4.9 WSW 48 69 26 37 1007.7 1007.6 0.0
25/03:00pm 17.4 9.3 8.8 57 4.5 W 41 56 22 30 1007.6 1007.5 0.0
25/02:30pm 17.5 8.1 8.9 57 4.5 W 48 63 26 34 1007.6 1007.5 0.0
25/02:00pm 17.4 9.2 9.6 60 4.1 WSW 43 52 23 28 1007.4 1007.3 0.0
25/01:30pm 17.1 9.9 10.5 65 3.5 W 39 56 21 30 1007.0 1006.9 0.0
25/01:00pm 17.7 10.3 9.8 60 4.2 W 39 54 21 29 1006.7 1006.6 0.0
25/12:30pm 18.9 10.6 9.4 54 5.0 W 43 56 23 30 1006.6 1006.5 0.0
25/12:00pm 18.5 10.8 10.1 58 4.5 W 41 56 22 30 1006.4 1006.3 0.0
25/11:30am 18.0 10.5 9.6 58 4.4 WSW 39 59 21 32 1006.1 1006.0 0.0
25/11:29am 18.0 10.5 9.6 58 4.4 WSW 39 59 21 32 1006.1 1006.0 0.0
25/11:00am 16.5 10.3 10.1 66 3.4 W 33 50 18 27 1005.9 1005.8 0.0
25/10:30am 17.4 11.4 10.8 65 3.5 WSW 33 43 18 23 1005.4 1005.3 0.0
25/10:00am 16.9 11.7 11.6 71 2.9 W 30 39 16 21 1005.1 1005.0 0.0
25/09:30am 15.4 9.5 11.0 75 2.3 W 33 46 18 25 1005.2 1005.1 0.0
25/09:17am 15.1 10.4 12.1 82 1.6 W 28 48 15 26 1005.4 1005.3 0.0
25/09:00am 15.7 12.7 13.7 88 1.1 W 22 30 12 16 1005.3 1005.2 2.8
25/08:30am 14.4 11.8 13.1 92 0.7 W 19 28 10 15 1005.1 1005.0 2.6
25/08:00am 14.4 11.8 13.3 93 0.6 W 19 22 10 12 1004.6 1004.5 2.6
25/07:30am 13.4 9.9 12.3 93 0.6 W 22 28 12 15 1004.4 1004.3 2.6
25/07:00am 13.5 8.6 12.4 93 0.6 WSW 30 39 16 21 1003.7 1003.6 2.4
25/06:30am 13.9 9.1 12.8 93 0.6 WSW 30 46 16 25 1003.3 1003.2 1.4
25/06:16am 14.4 10.1 13.1 92 0.7 WSW 28 50 15 27 1003.3 1003.2 0.2
25/06:00am 15.0 10.0 13.5 91 0.8 WSW 32 39 17 21 1002.3 1002.2 0.0
25/05:52am 15.6 13.1 14.1 91 0.8 W 20 39 11 21 1002.1 1002.0 0.0
25/05:30am 15.2 14.7 13.7 91 0.8 W 9 15 5 8 1001.8 1001.7 0.0
25/05:00am 15.0 15.0 13.7 92 0.7 WNW 6 7 3 4 1001.5 1001.4 0.0
25/04:30am 15.4 15.4 14.1 92 0.7 NW 7 9 4 5 1001.4 1001.3 0.0
25/04:00am 14.8 14.8 13.7 93 0.6 N 6 7 3 4 1001.0 1000.9 0.0
25/03:30am 14.1 13.9 13.0 93 0.6 NW 6 7 3 4 1000.8 1000.7 0.0
25/03:00am 13.5 13.9 12.4 93 0.6 WNW 2 4 1 2 1001.6 1001.5 0.0
25/02:30am 13.9 13.4 12.8 93 0.6 WNW 7 11 4 6 1001.6 1001.5 0.0
25/02:00am 14.1 13.7 13.0 93 0.6 W 7 9 4 5 1002.0 1001.9 0.0
25/01:30am 14.5 14.2 13.2 92 0.7 W 7 9 4 5 1002.1 1002.0 0.0
25/01:00am 15.6 15.3 14.3 92 0.7 W 9 11 5 6 1002.4 1002.3 0.0
25/12:30am 14.2 13.6 12.4 89 1.0 WSW 7 9 4 5 1002.7 1002.6 0.0
25/12:00am 15.8 16.6 13.8 88 1.1 SSE 2 4 1 2 1003.0 1002.9 0.0
 
Date/Time
EDT
Temp
°C
App
Temp
°C
Dew
Point
Rel
Hum
%
Delta-T
°C
Wind Press
QNH
hPa
Press
MSL
hPa
Rain
since 9 am
mm
Dir
 
Spd
km/h
Gust
km/h
Spd
kts
Gust
kts
24/11:30pm 16.0 16.8 13.7 86 1.3 SSE 2 4 1 2 1003.2 1003.1 0.0
24/11:00pm 16.9 17.6 14.4 85 1.4 SSE 4 4 2 2 1003.3 1003.2 0.0
24/10:30pm 17.6 18.1 14.9 84 1.6 ESE 6 7 3 4 1003.3 1003.2 0.0
24/10:00pm 17.6 17.7 14.5 82 1.8 ESE 7 9 4 5 1003.6 1003.5 0.0
24/09:30pm 17.9 17.6 14.4 80 2.0 ESE 9 13 5 7 1003.7 1003.6 0.0
24/09:00pm 18.0 18.0 14.3 79 2.1 ESE 7 13 4 7 1003.6 1003.5 0.0
24/08:30pm 18.3 18.2 13.8 75 2.6 ESE 7 11 4 6 1003.3 1003.2 0.0
24/08:00pm 19.4 19.1 14.4 73 2.9 E 9 13 5 7 1003.1 1003.0 0.0
24/07:30pm 20.0 19.5 14.8 72 3.0 E 11 17 6 9 1002.7 1002.6 0.0
24/07:00pm 21.1 21.2 15.4 70 3.4 E 9 15 5 8 1002.5 1002.4 0.0
24/06:30pm 20.6 19.9 15.4 72 3.1 ENE 13 20 7 11 1002.4 1002.3 0.0
24/06:00pm 22.8 23.1 15.9 65 4.2 E 9 15 5 8 1002.5 1002.4 0.0
24/05:30pm 22.5 23.0 15.6 65 4.1 E 7 13 4 7 1002.4 1002.3 0.0
24/05:00pm 24.4 25.4 16.9 63 4.6 SE 7 20 4 11 1002.5 1002.4 0.0
24/04:30pm 22.8 23.8 16.4 67 3.9 E 6 9 3 5 1002.7 1002.6 0.0
24/04:00pm 22.7 23.1 16.3 67 3.9 E 9 13 5 7 1002.8 1002.7 0.0
24/03:30pm 25.3 25.4 17.5 62 4.9 SSW 13 19 7 10 1003.2 1003.1 0.0
24/03:00pm 24.1 23.9 16.6 63 4.6 ENE 13 19 7 10 1003.1 1003.0 0.0
24/02:30pm 22.9 22.1 16.2 66 4.1 ENE 15 22 8 12 1003.4 1003.3 0.0
24/02:00pm 22.7 22.7 16.3 67 3.9 ENE 11 17 6 9 1004.1 1004.0 0.0
24/01:30pm 23.8 24.1 17.1 66 4.1 E 11 19 6 10 1004.4 1004.3 0.0
24/01:00pm 23.3 23.5 16.8 67 4.0 ENE 11 19 6 10 1004.5 1004.4 0.0
24/12:30pm 21.7 21.5 15.8 69 3.5 NE 11 17 6 9 1004.9 1004.8 0.0
24/12:00pm 20.9 20.9 15.2 70 3.4 NE 9 17 5 9 1005.2 1005.1 0.0
24/11:30am 19.6 19.2 15.3 76 2.5 NE 11 17 6 9 1005.7 1005.6 0.0
24/11:00am 19.5 18.9 14.5 73 2.9 NE 11 19 6 10 1006.0 1005.9 0.0
24/10:30am 19.6 18.4 15.0 75 2.7 ENE 15 24 8 13 1005.9 1005.8 0.0
24/10:00am 18.5 18.3 14.8 79 2.2 NE 9 15 5 8 1006.3 1006.2 0.0
24/09:30am 18.0 16.6 14.5 80 2.0 ENE 15 22 8 12 1006.4 1006.3 0.0
24/09:00am 18.1 18.1 15.2 83 1.7 ENE 9 15 5 8 1006.3 1006.2 0.0
24/08:30am 17.2 16.9 14.5 84 1.6 ENE 9 13 5 7 1006.3 1006.2 0.0
24/08:00am 17.0 16.8 14.6 86 1.4 ENE 9 15 5 8 1006.2 1006.1 0.0
24/07:30am 16.5 16.5 14.3 87 1.3 E 7 13 4 7 1006.2 1006.1 0.0
24/07:00am 16.4 15.7 14.2 87 1.3 ENE 11 17 6 9 1006.2 1006.1 0.0
24/06:30am 16.4 16.0 14.1 86 1.3 NE 9 17 5 9 1006.2 1006.1 0.0
24/06:00am 16.3 16.3 14.1 87 1.3 NE 7 13 4 7 1006.2 1006.1 0.0
24/05:30am 16.1 17.3 13.8 86 1.3 CALM 0 0 0 0 1006.3 1006.2 0.0
24/05:00am 16.3 16.2 13.4 83 1.6 NNE 6 9 3 5 1006.4 1006.3 0.0
24/04:30am 15.7 16.0 12.3 80 1.9 SE 2 2 1 1 1006.2 1006.1 0.0
24/04:00am 15.8 16.7 12.9 83 1.6 CALM 0 0 0 0 1006.4 1006.3 0.0
24/03:30am 15.9 16.8 13.0 83 1.6 CALM 0 0 0 0 1006.5 1006.4 0.0
24/03:00am 15.9 16.9 13.2 84 1.5 CALM 0 0 0 0 1006.7 1006.6 0.0
24/02:30am 15.9 16.5 13.2 84 1.5 SE 2 4 1 2 1007.1 1007.0 0.0
24/02:00am 15.9 16.5 13.2 84 1.5 S 2 4 1 2 1007.4 1007.3 0.0
24/01:30am 15.8 15.6 13.1 84 1.5 SSE 6 7 3 4 1007.7 1007.6 0.0
24/01:00am 15.8 15.6 13.1 84 1.5 S 6 6 3 3 1008.0 1007.9 0.0
24/12:30am 15.8 15.7 13.3 85 1.4 SSE 6 7 3 4 1008.2 1008.1 0.0
24/12:00am 15.8 15.8 13.5 86 1.3 SSE 6 7 3 4 1008.5 1008.4 0.0
 
Date/Time
EDT
Temp
°C
App
Temp
°C
Dew
Point
Rel
Hum
%
Delta-T
°C
Wind Press
QNH
hPa
Press
MSL
hPa
Rain
since 9 am
mm
Dir
 
Spd
km/h
Gust
km/h
Spd
kts
Gust
kts
23/11:30pm 15.7 16.0 13.5 87 1.2 SE 4 6 2 3 1008.9 1008.8 0.0
23/11:00pm 15.6 15.9 13.3 86 1.3 SE 4 6 2 3 1009.2 1009.1 0.0
23/10:30pm 15.4 15.9 12.9 85 1.4 SSE 2 6 1 3 1009.4 1009.3 0.0
23/10:00pm 15.9 15.6 13.2 84 1.5 SSW 7 9 4 5 1009.2 1009.1 0.0

Other Formats:

Comma delimited format used in spreadsheet applications
http://www.bom.gov.au/fwo/IDV60801/IDV60801.94911.axf

JavaScript Object Notation format (JSON) in row-major order
http://www.bom.gov.au/fwo/IDV60801/IDV60801.94911.json